Time,TemperatureF,DewpointF,PressureIn,WindDirection,WindDirectionDegrees,WindSpeedMPH,WindSpeedGustMPH,Humidity,HourlyPrecipIn,Conditions,Clouds,dailyrainin,SoftwareType,DateUTC
2013-05-29 00:11:00,46.3,43.0,29.80,NE,51,0.0,4.0,89,0.00,,,0.00,weatherlink.com 1.10,2013-05-29 07:11:00,
2013-05-29 00:26:00,46.3,43.0,29.79,NE,51,2.0,5.0,88,0.00,,,0.00,weatherlink.com 1.10,2013-05-29 07:26:00,
2013-05-29 00:41:00,45.2,43.0,29.79,NE,43,4.0,5.0,90,0.00,,,0.00,weatherlink.com 1.10,2013-05-29 07:41:00,
2013-05-29 00:57:00,45.1,43.0,29.78,NE,40,4.0,5.0,91,0.00,,,0.00,weatherlink.com 1.10,2013-05-29 07:57:00,
2013-05-29 01:12:00,45.9,44.0,29.78,NE,40,4.0,7.0,91,0.00,,,0.00,weatherlink.com 1.10,2013-05-29 08:12:00,
2013-05-29 01:27:00,45.6,43.0,29.77,NE,39,4.0,6.0,91,0.00,,,0.00,weatherlink.com 1.10,2013-05-29 08:27:00,
2013-05-29 01:42:00,45.2,43.0,29.77,NE,41,3.0,6.0,92,0.00,,,0.00,weatherlink.com 1.10,2013-05-29 08:42:00,
2013-05-29 01:57:00,44.6,42.0,29.76,ENE,65,0.0,5.0,91,0.00,,,0.00,weatherlink.com 1.10,2013-05-29 08:57:00,
2013-05-29 02:12:00,43.6,42.0,29.75,ENE,73,1.0,5.0,92,0.00,,,0.00,weatherlink.com 1.10,2013-05-29 09:12:00,
2013-05-29 02:27:00,43.3,42.0,29.75,ENE,59,3.0,5.0,93,0.00,,,0.00,weatherlink.com 1.10,2013-05-29 09:27:00,
2013-05-29 02:42:00,42.7,41.0,29.74,NE,40,3.0,5.0,95,0.00,,,0.00,weatherlink.com 1.10,2013-05-29 09:42:00,
2013-05-29 02:57:00,42.7,41.0,29.73,NE,47,2.0,5.0,95,0.00,,,0.00,weatherlink.com 1.10,2013-05-29 09:57:00,
2013-05-29 03:12:00,42.5,42.0,29.73,ENE,72,1.0,3.0,96,0.00,,,0.00,weatherlink.com 1.10,2013-05-29 10:12:00,
2013-05-29 03:27:00,42.2,41.0,29.73,SE,135,0.0,2.0,96,0.00,,,0.00,weatherlink.com 1.10,2013-05-29 10:27:00,
2013-05-29 03:42:00,42.4,41.0,29.73,NE,53,4.0,5.0,96,0.00,,,0.00,weatherlink.com 1.10,2013-05-29 10:42:00,
2013-05-29 03:57:00,42.4,41.0,29.73,NE,46,2.0,3.0,96,0.00,,,0.00,weatherlink.com 1.10,2013-05-29 10:57:00,
2013-05-29 04:12:00,42.4,42.0,29.73,NE,53,2.0,3.0,97,0.00,,,0.00,weatherlink.com 1.10,2013-05-29 11:12:00,
2013-05-29 04:27:00,43.0,42.0,29.72,NE,44,3.0,6.0,97,0.00,,,0.00,weatherlink.com 1.10,2013-05-29 11:27:00,
2013-05-29 04:42:00,44.3,43.0,29.72,ENE,64,1.0,7.0,96,0.00,,,0.00,weatherlink.com 1.10,2013-05-29 11:42:00,
2013-05-29 04:57:00,44.6,43.0,29.71,NE,48,6.0,7.0,95,0.00,,,0.00,weatherlink.com 1.10,2013-05-29 11:57:00,
2013-05-29 05:12:00,44.2,43.0,29.71,ENE,57,5.0,7.0,95,0.00,,,0.00,weatherlink.com 1.10,2013-05-29 12:12:00,
2013-05-29 05:27:00,44.2,43.0,29.70,ENE,58,4.0,10.0,95,0.00,,,0.00,weatherlink.com 1.10,2013-05-29 12:27:00,
2013-05-29 05:42:00,43.8,42.0,29.69,ENE,76,6.0,7.0,94,0.00,,,0.00,weatherlink.com 1.10,2013-05-29 12:42:00,
2013-05-29 05:57:00,43.2,42.0,29.70,ENE,60,10.0,10.0,96,0.00,,,0.00,weatherlink.com 1.10,2013-05-29 12:57:00,
2013-05-29 06:12:00,43.3,42.0,29.69,NE,51,6.0,9.0,96,0.00,,,0.00,weatherlink.com 1.10,2013-05-29 13:12:00,
2013-05-29 06:27:00,43.7,43.0,29.69,ENE,72,4.0,9.0,96,0.00,,,0.00,weatherlink.com 1.10,2013-05-29 13:27:00,
2013-05-29 06:42:00,44.2,43.0,29.70,NE,50,5.0,8.0,96,0.00,,,0.00,weatherlink.com 1.10,2013-05-29 13:42:00,
2013-05-29 06:57:00,44.9,44.0,29.70,East,82,1.0,5.0,95,0.00,,,0.00,weatherlink.com 1.10,2013-05-29 13:57:00,
2013-05-29 07:12:00,45.7,44.0,29.70,ENE,63,4.0,6.0,94,0.00,,,0.00,weatherlink.com 1.10,2013-05-29 14:12:00,
2013-05-29 07:27:00,46.3,44.0,29.70,NNE,32,6.0,8.0,93,0.00,,,0.00,weatherlink.com 1.10,2013-05-29 14:27:00,
2013-05-29 07:42:00,46.8,44.0,29.69,NE,49,3.0,12.0,91,0.00,,,0.00,weatherlink.com 1.10,2013-05-29 14:42:00,
2013-05-29 07:57:00,49.0,46.0,29.68,ENE,57,6.0,11.0,88,0.00,,,0.00,weatherlink.com 1.10,2013-05-29 14:57:00,
2013-05-29 08:12:00,49.4,46.0,29.69,ESE,103,5.0,6.0,87,0.00,,,0.00,weatherlink.com 1.10,2013-05-29 15:12:00,
2013-05-29 08:28:00,50.1,46.0,29.68,ENE,68,7.0,13.0,84,0.00,,,0.00,weatherlink.com 1.10,2013-05-29 15:28:00,
2013-05-29 08:43:00,51.6,47.0,29.68,NNE,32,4.0,8.0,84,0.00,,,0.00,weatherlink.com 1.10,2013-05-29 15:43:00,
2013-05-29 08:58:00,52.3,46.0,29.68,ENE,72,6.0,10.0,80,0.00,,,0.00,weatherlink.com 1.10,2013-05-29 15:58:00,
2013-05-29 09:13:00,52.6,46.0,29.68,ESE,108,2.0,10.0,77,0.00,,,0.00,weatherlink.com 1.10,2013-05-29 16:13:00,
2013-05-29 09:28:00,53.5,46.0,29.68,SE,127,3.0,7.0,75,0.00,,,0.00,weatherlink.com 1.10,2013-05-29 16:28:00,
2013-05-29 09:43:00,54.0,47.0,29.68,SSW,193,5.0,6.0,77,0.00,,,0.00,weatherlink.com 1.10,2013-05-29 16:43:00,
2013-05-29 09:58:00,55.2,47.0,29.67,East,89,3.0,5.0,75,0.00,,,0.00,weatherlink.com 1.10,2013-05-29 16:58:00,
2013-05-29 10:13:00,55.9,47.0,29.68,ESE,120,6.0,10.0,71,0.00,,,0.00,weatherlink.com 1.10,2013-05-29 17:13:00,
2013-05-29 10:28:00,56.2,46.0,29.68,SSE,149,3.0,9.0,69,0.00,,,0.00,weatherlink.com 1.10,2013-05-29 17:28:00,
2013-05-29 10:43:00,55.9,47.0,29.69,SW,222,3.0,9.0,72,0.00,,,0.00,weatherlink.com 1.10,2013-05-29 17:43:00,
2013-05-29 10:58:00,56.2,48.0,29.69,SW,222,8.0,12.0,75,0.00,,,0.00,weatherlink.com 1.10,2013-05-29 17:58:00,
2013-05-29 11:28:00,52.3,46.0,29.70,WSW,249,14.0,15.0,79,0.00,,,0.00,weatherlink.com 1.10,2013-05-29 18:28:00,
2013-05-29 11:43:00,51.2,47.0,29.70,SW,226,12.0,14.0,84,0.00,,,0.00,weatherlink.com 1.10,2013-05-29 18:43:00,
2013-05-29 11:58:00,50.2,47.0,29.71,WSW,258,7.0,13.0,88,0.00,,,0.00,weatherlink.com 1.10,2013-05-29 18:58:00,
2013-05-29 12:13:00,50.1,47.0,29.71,West,266,12.0,14.0,90,0.00,,,0.00,weatherlink.com 1.10,2013-05-29 19:13:00,
2013-05-29 12:28:00,49.7,47.0,29.72,West,270,8.0,13.0,91,0.00,,,0.00,weatherlink.com 1.10,2013-05-29 19:28:00,
2013-05-29 12:43:00,49.5,47.0,29.72,West,271,13.0,16.0,92,0.00,,,0.00,weatherlink.com 1.10,2013-05-29 19:43:00,
2013-05-29 12:58:00,49.1,47.0,29.72,West,281,11.0,16.0,93,0.00,,,0.00,weatherlink.com 1.10,2013-05-29 19:58:00,
2013-05-29 13:13:00,48.6,46.0,29.73,WNW,288,11.0,17.0,92,0.00,,,0.00,weatherlink.com 1.10,2013-05-29 20:13:00,
2013-05-29 13:28:00,48.1,46.0,29.73,West,271,8.0,12.0,93,0.00,,,0.00,weatherlink.com 1.10,2013-05-29 20:28:00,
2013-05-29 13:43:00,47.7,46.0,29.74,West,278,7.0,13.0,94,0.02,,,0.02,weatherlink.com 1.10,2013-05-29 20:43:00,
2013-05-29 13:58:00,47.7,46.0,29.75,WNW,295,6.0,11.0,93,0.03,,,0.03,weatherlink.com 1.10,2013-05-29 20:58:00,
2013-05-29 14:13:00,47.5,46.0,29.75,West,274,5.0,10.0,94,0.05,,,0.05,weatherlink.com 1.10,2013-05-29 21:13:00,
2013-05-29 14:28:00,47.4,46.0,29.76,West,278,5.0,10.0,94,0.05,,,0.05,weatherlink.com 1.10,2013-05-29 21:28:00,
2013-05-29 14:43:00,47.3,46.0,29.76,WNW,290,5.0,8.0,95,0.04,,,0.06,weatherlink.com 1.10,2013-05-29 21:43:00,
2013-05-29 15:13:00,47.7,46.0,29.76,West,280,2.0,7.0,95,0.02,,,0.07,weatherlink.com 1.10,2013-05-29 22:13:00,
2013-05-29 15:28:00,48.0,47.0,29.77,West,274,3.0,5.0,95,0.02,,,0.07,weatherlink.com 1.10,2013-05-29 22:28:00,
2013-05-29 15:43:00,48.6,47.0,29.77,West,281,4.0,5.0,93,0.02,,,0.08,weatherlink.com 1.10,2013-05-29 22:43:00,
2013-05-29 15:58:00,50.4,47.0,29.77,NNW,337,1.0,6.0,87,0.01,,,0.08,weatherlink.com 1.10,2013-05-29 22:58:00,
2013-05-29 16:13:00,51.6,47.0,29.77,WSW,248,2.0,7.0,85,0.01,,,0.08,weatherlink.com 1.10,2013-05-29 23:13:00,
2013-05-29 16:28:00,51.6,47.0,29.77,West,276,2.0,8.0,83,0.01,,,0.08,weatherlink.com 1.10,2013-05-29 23:28:00,
2013-05-29 16:43:00,52.5,47.0,29.78,WSW,255,3.0,5.0,81,0.00,,,0.08,weatherlink.com 1.10,2013-05-29 23:43:00,
2013-05-29 16:58:00,52.7,49.0,29.78,SE,146,3.0,4.0,87,0.00,,,0.08,weatherlink.com 1.10,2013-05-29 23:58:00,
2013-05-29 17:13:00,54.3,49.0,29.79,SW,221,5.0,6.0,83,0.00,,,0.08,weatherlink.com 1.10,2013-05-30 00:13:00,
2013-05-29 17:28:00,53.6,49.0,29.78,SSW,203,3.0,6.0,83,0.00,,,0.08,weatherlink.com 1.10,2013-05-30 00:28:00,
2013-05-29 17:43:00,53.8,47.0,29.78,SSE,166,4.0,7.0,79,0.00,,,0.08,weatherlink.com 1.10,2013-05-30 00:43:00,
2013-05-29 17:58:00,53.2,48.0,29.78,SSW,208,1.0,6.0,82,0.00,,,0.08,weatherlink.com 1.10,2013-05-30 00:58:00,
2013-05-29 18:13:00,52.0,48.0,29.79,SSW,210,3.0,7.0,86,0.00,,,0.08,weatherlink.com 1.10,2013-05-30 01:13:00,
2013-05-29 18:28:00,51.2,48.0,29.80,SSW,208,2.0,4.0,87,0.00,,,0.08,weatherlink.com 1.10,2013-05-30 01:28:00,
2013-05-29 18:43:00,50.9,47.0,29.81,West,273,4.0,5.0,86,0.00,,,0.08,weatherlink.com 1.10,2013-05-30 01:43:00,
2013-05-29 18:58:00,47.9,43.0,29.82,NW,321,6.0,10.0,84,0.00,,,0.08,weatherlink.com 1.10,2013-05-30 01:58:00,
2013-05-29 19:13:00,46.7,43.0,29.83,NW,304,4.0,9.0,88,0.01,,,0.09,weatherlink.com 1.10,2013-05-30 02:13:00,
2013-05-29 19:29:00,46.0,44.0,29.84,WNW,284,2.0,8.0,91,0.03,,,0.11,weatherlink.com 1.10,2013-05-30 02:29:00,
2013-05-29 19:44:00,45.7,44.0,29.83,NNW,342,2.0,3.0,93,0.05,,,0.13,weatherlink.com 1.10,2013-05-30 02:44:00,
2013-05-29 19:59:00,46.1,45.0,29.83,WNW,287,2.0,2.0,94,0.05,,,0.13,weatherlink.com 1.10,2013-05-30 02:59:00,
2013-05-29 20:14:00,46.3,45.0,29.85,West,269,3.0,6.0,94,0.04,,,0.13,weatherlink.com 1.10,2013-05-30 03:14:00,
2013-05-29 20:29:00,46.2,45.0,29.86,West,259,4.0,5.0,94,0.04,,,0.15,weatherlink.com 1.10,2013-05-30 03:29:00,
2013-05-29 20:44:00,46.2,45.0,29.86,WSW,255,1.0,4.0,95,0.02,,,0.15,weatherlink.com 1.10,2013-05-30 03:44:00,
2013-05-29 20:59:00,46.2,45.0,29.86,WSW,243,0.0,2.0,95,0.02,,,0.15,weatherlink.com 1.10,2013-05-30 03:59:00,
2013-05-29 21:14:00,46.3,44.0,29.86,West,273,6.0,7.0,91,0.01,,,0.15,weatherlink.com 1.10,2013-05-30 04:14:00,
2013-05-29 21:29:00,46.4,44.0,29.87,West,277,2.0,6.0,91,0.00,,,0.15,weatherlink.com 1.10,2013-05-30 04:29:00,
2013-05-29 21:44:00,46.4,44.0,29.88,West,263,1.0,3.0,92,0.00,,,0.15,weatherlink.com 1.10,2013-05-30 04:44:00,
2013-05-29 21:59:00,46.2,44.0,29.88,WSW,254,6.0,6.0,93,0.00,,,0.15,weatherlink.com 1.10,2013-05-30 04:59:00,
2013-05-29 22:14:00,46.2,44.0,29.89,West,281,5.0,11.0,92,0.01,,,0.16,weatherlink.com 1.10,2013-05-30 05:14:00,
2013-05-29 22:29:00,45.8,44.0,29.89,WNW,288,3.0,10.0,93,0.01,,,0.16,weatherlink.com 1.10,2013-05-30 05:29:00,
2013-05-29 22:44:00,45.6,44.0,29.89,West,271,2.0,6.0,93,0.01,,,0.16,weatherlink.com 1.10,2013-05-30 05:44:00,
2013-05-29 22:59:00,45.5,44.0,29.90,West,262,3.0,4.0,94,0.01,,,0.16,weatherlink.com 1.10,2013-05-30 05:59:00,
2013-05-29 23:14:00,45.4,44.0,29.90,West,268,1.0,4.0,94,0.00,,,0.16,weatherlink.com 1.10,2013-05-30 06:14:00,
2013-05-29 23:29:00,45.3,44.0,29.90,West,264,1.0,2.0,95,0.00,,,0.16,weatherlink.com 1.10,2013-05-30 06:29:00,
2013-05-29 23:44:00,45.2,44.0,29.90,WNW,301,1.0,3.0,95,0.01,,,0.17,weatherlink.com 1.10,2013-05-30 06:44:00,
2013-05-29 23:59:00,45.0,44.0,29.91,NW,314,2.0,3.0,95,0.01,,,0.00,weatherlink.com 1.10,2013-05-30 06:59:00,